createdAt,value
2019-02-19T00:00:08.638Z,8.23
2019-02-19T00:02:41.387Z,8.18
2019-02-19T00:05:14.276Z,8.18
2019-02-19T00:07:47.336Z,8.22
2019-02-19T00:10:19.996Z,8.22
2019-02-19T00:12:52.717Z,8.23
2019-02-19T00:15:26.655Z,8.23
2019-02-19T00:17:59.216Z,8.28
2019-02-19T00:20:33.754Z,8.36
2019-02-19T00:23:08.494Z,8.39
2019-02-19T00:25:41.092Z,8.41
2019-02-19T00:28:14.635Z,8.45
2019-02-19T00:30:48.482Z,8.44
2019-02-19T00:33:21.245Z,8.49
2019-02-19T00:35:53.876Z,8.55
2019-02-19T00:38:26.790Z,8.54
2019-02-19T00:41:00.127Z,8.54
2019-02-19T00:43:34.708Z,8.58
2019-02-19T00:46:08.288Z,8.59
2019-02-19T00:48:41.049Z,8.63
2019-02-19T00:51:13.875Z,8.68
2019-02-19T00:53:48.470Z,8.69
2019-02-19T00:56:23.535Z,8.74
2019-02-19T00:58:56.799Z,8.79
2019-02-19T01:01:30.592Z,8.86
2019-02-19T01:04:03.963Z,8.94
2019-02-19T01:06:37.413Z,9.04
2019-02-19T01:09:10.821Z,9.11
2019-02-19T01:11:43.593Z,9.17
2019-02-19T01:14:17.830Z,9.20
2019-02-19T01:16:50.954Z,9.16
2019-02-19T01:19:23.688Z,9.19
2019-02-19T01:21:56.311Z,9.29
2019-02-19T01:24:30.442Z,9.37
2019-02-19T01:27:06.217Z,9.37
2019-02-19T01:29:39.644Z,9.31
2019-02-19T01:32:12.641Z,9.31
2019-02-19T01:34:45.359Z,9.27
2019-02-19T01:37:18.131Z,9.16
2019-02-19T01:39:52.527Z,9.05
2019-02-19T01:42:27.246Z,9.00
2019-02-19T01:44:59.864Z,8.94
2019-02-19T01:47:35.977Z,8.86
2019-02-19T01:50:09.126Z,8.81
2019-02-19T01:52:41.793Z,8.85
2019-02-19T01:55:15.835Z,8.79
2019-02-19T01:57:48.573Z,8.72
2019-02-19T02:00:21.201Z,8.61
2019-02-19T02:02:53.927Z,8.51
2019-02-19T02:05:26.490Z,8.44
2019-02-19T02:07:58.951Z,8.39
2019-02-19T02:10:31.899Z,8.39
2019-02-19T02:13:04.495Z,8.47
2019-02-19T02:15:42.460Z,8.60
2019-02-19T02:18:16.402Z,8.66
2019-02-19T02:20:48.963Z,8.72
2019-02-19T02:23:21.712Z,8.74
2019-02-19T02:25:54.371Z,8.76
2019-02-19T02:28:28.820Z,8.76
2019-02-19T02:31:01.954Z,8.71
2019-02-19T02:33:35.652Z,8.64
2019-02-19T02:36:10.058Z,8.60
2019-02-19T02:38:44.027Z,8.60
2019-02-19T02:41:16.673Z,8.61
2019-02-19T02:43:50.884Z,8.60
2019-02-19T02:46:28.003Z,8.60
2019-02-19T02:49:02.287Z,8.65
2019-02-19T02:51:35.510Z,8.66
2019-02-19T02:54:08.406Z,8.68
2019-02-19T02:56:41.787Z,8.67
2019-02-19T02:59:15.360Z,8.64
2019-02-19T03:01:52.274Z,8.60
2019-02-19T03:04:27.866Z,8.57
2019-02-19T03:07:11.753Z,8.56
2019-02-19T03:09:46.646Z,8.53
2019-02-19T03:12:20.682Z,8.52
2019-02-19T03:14:55.479Z,8.52
2019-02-19T03:17:28.046Z,8.49
2019-02-19T03:20:00.681Z,8.46
2019-02-19T03:22:34.885Z,8.44
2019-02-19T03:25:07.746Z,8.45
2019-02-19T03:27:40.616Z,8.43
2019-02-19T03:30:16.304Z,8.39
2019-02-19T03:32:48.768Z,8.40
2019-02-19T03:35:21.385Z,8.36
2019-02-19T03:37:54.385Z,8.34
2019-02-19T03:40:26.980Z,8.30
2019-02-19T03:42:59.476Z,8.29
2019-02-19T03:45:33.400Z,8.27
2019-02-19T03:48:06.187Z,8.28
2019-02-19T03:50:38.747Z,8.26
2019-02-19T03:53:13.666Z,8.30
2019-02-19T03:55:46.239Z,8.27
2019-02-19T03:58:18.698Z,8.24
2019-02-19T04:00:51.565Z,8.22
2019-02-19T04:03:24.732Z,8.18
2019-02-19T04:05:57.679Z,8.18
2019-02-19T04:08:30.601Z,8.11
2019-02-19T04:11:03.065Z,8.05
2019-02-19T04:13:35.858Z,8.03
2019-02-19T04:16:08.616Z,8.01
2019-02-19T04:18:41.183Z,7.98
2019-02-19T04:21:13.736Z,7.94
2019-02-19T04:23:47.842Z,7.92
2019-02-19T04:26:20.270Z,7.86
2019-02-19T04:28:53.162Z,7.76
2019-02-19T04:31:26.143Z,7.66
2019-02-19T04:33:58.632Z,7.59
2019-02-19T04:36:31.215Z,7.53
2019-02-19T04:39:06.609Z,7.48
2019-02-19T04:41:39.326Z,7.45
2019-02-19T04:44:12.350Z,7.42
2019-02-19T04:46:44.984Z,7.39
2019-02-19T04:49:17.671Z,7.39
2019-02-19T04:51:50.209Z,7.37
2019-02-19T04:54:23.206Z,7.35
2019-02-19T04:56:56.163Z,7.33
2019-02-19T04:59:28.686Z,7.32
2019-02-19T05:02:01.430Z,7.34
2019-02-19T05:04:34.070Z,7.38
2019-02-19T05:07:07.396Z,7.38
2019-02-19T05:09:40.421Z,7.39
2019-02-19T05:12:13.027Z,7.38
2019-02-19T05:14:45.530Z,7.39
2019-02-19T05:17:20.707Z,7.38
2019-02-19T05:19:53.802Z,7.38
2019-02-19T05:22:26.466Z,7.38
2019-02-19T05:24:59.380Z,7.42
2019-02-19T05:27:31.889Z,7.42
2019-02-19T05:30:07.291Z,7.43
2019-02-19T05:32:40.199Z,7.43
2019-02-19T05:35:12.785Z,7.48
2019-02-19T05:37:45.393Z,7.49
2019-02-19T05:40:18.931Z,7.50
2019-02-19T05:42:51.658Z,7.50
2019-02-19T05:45:24.316Z,7.51
2019-02-19T05:47:56.854Z,7.52
2019-02-19T05:50:30.086Z,7.54
2019-02-19T05:53:02.656Z,7.53
2019-02-19T05:55:35.246Z,7.53
2019-02-19T05:58:07.756Z,7.54
2019-02-19T06:00:40.425Z,7.54
2019-02-19T06:03:12.958Z,7.54
2019-02-19T06:05:47.658Z,7.53
2019-02-19T06:08:20.134Z,7.52
2019-02-19T06:10:52.714Z,7.52
2019-02-19T06:13:25.522Z,7.51
2019-02-19T06:15:58.090Z,7.50
2019-02-19T06:18:31.752Z,7.48
2019-02-19T06:21:05.989Z,7.46
2019-02-19T06:23:38.419Z,7.45
2019-02-19T06:26:11.060Z,7.43
2019-02-19T06:28:44.830Z,7.43
2019-02-19T06:31:17.437Z,7.41
2019-02-19T06:33:50.803Z,7.42
2019-02-19T06:36:24.133Z,7.42
2019-02-19T06:38:56.906Z,7.42
2019-02-19T06:41:30.832Z,7.42
2019-02-19T06:44:04.002Z,7.43
2019-02-19T06:46:37.748Z,7.43
2019-02-19T06:49:11.206Z,7.42
2019-02-19T06:51:46.461Z,7.44
2019-02-19T06:54:19.250Z,7.44
2019-02-19T06:56:51.827Z,7.45
2019-02-19T06:59:25.470Z,7.47
2019-02-19T07:02:18.330Z,7.46
2019-02-19T07:04:54.184Z,7.47
2019-02-19T07:07:27.147Z,7.47
2019-02-19T07:10:00.247Z,7.48
2019-02-19T07:12:32.908Z,7.50
2019-02-19T07:15:07.445Z,7.52
2019-02-19T07:17:40.074Z,7.54
2019-02-19T07:20:14.040Z,7.56
2019-02-19T07:22:52.642Z,7.61
2019-02-19T07:25:25.383Z,7.63
2019-02-19T07:27:57.936Z,7.66
2019-02-19T07:30:30.586Z,7.66
2019-02-19T07:33:05.011Z,7.68
2019-02-19T07:35:38.386Z,7.68
2019-02-19T07:38:11.357Z,7.68
2019-02-19T07:40:43.934Z,7.67
2019-02-19T07:43:17.428Z,7.66
2019-02-19T07:45:52.326Z,7.66
2019-02-19T07:48:26.455Z,7.67
2019-02-19T07:50:59.491Z,7.68
2019-02-19T07:53:34.998Z,7.70
2019-02-19T07:56:08.135Z,7.73
2019-02-19T07:58:40.714Z,7.77
2019-02-19T08:01:16.883Z,7.82
2019-02-19T08:03:49.982Z,7.86
2019-02-19T08:06:22.620Z,7.90
2019-02-19T08:08:59.135Z,7.95
2019-02-19T08:11:32.571Z,7.98
2019-02-19T08:14:05.200Z,7.99
2019-02-19T08:16:38.120Z,8.01
2019-02-19T08:19:10.707Z,7.97
2019-02-19T08:21:45.543Z,7.95
2019-02-19T08:24:18.550Z,7.93
2019-02-19T08:26:52.564Z,7.90
2019-02-19T08:29:25.730Z,7.87
2019-02-19T08:31:59.976Z,7.86
2019-02-19T08:34:34.249Z,7.85
2019-02-19T08:37:07.570Z,7.84
2019-02-19T08:39:40.158Z,7.84
2019-02-19T08:42:12.711Z,7.81
2019-02-19T08:44:46.267Z,7.79
2019-02-19T08:47:20.369Z,7.82
2019-02-19T08:49:58.031Z,7.91
2019-02-19T08:52:32.675Z,8.04
2019-02-19T08:55:06.889Z,8.14
2019-02-19T08:57:42.429Z,8.16
2019-02-19T09:00:17.801Z,8.16
2019-02-19T09:02:53.898Z,8.09
2019-02-19T09:05:27.879Z,8.01
2019-02-19T09:08:02.270Z,7.95
2019-02-19T09:10:37.944Z,7.93
2019-02-19T09:13:11.972Z,7.92
2019-02-19T09:15:46.598Z,7.97
2019-02-19T09:18:19.111Z,8.05
2019-02-19T09:20:51.706Z,8.17
2019-02-19T09:23:25.503Z,8.26
2019-02-19T09:25:58.107Z,8.33
2019-02-19T09:28:34.350Z,8.49
2019-02-19T09:31:07.771Z,8.71
2019-02-19T09:33:41.726Z,8.84
2019-02-19T09:36:14.379Z,9.34
2019-02-19T09:38:46.906Z,9.53
2019-02-19T09:41:21.587Z,9.41
2019-02-19T09:43:54.042Z,9.37
2019-02-19T09:46:34.143Z,9.35
2019-02-19T09:49:07.440Z,9.33
2019-02-19T09:51:45.499Z,9.45
2019-02-19T09:54:18.303Z,9.41
2019-02-19T09:56:53.655Z,9.50
2019-02-19T09:59:27.154Z,9.75
2019-02-19T10:02:00.449Z,9.96
2019-02-19T10:04:37.314Z,10.39
2019-02-19T10:07:09.979Z,10.69
2019-02-19T10:09:43.766Z,10.82
2019-02-19T10:12:16.778Z,11.15
2019-02-19T10:14:49.310Z,11.12
2019-02-19T10:17:22.492Z,10.86
2019-02-19T10:19:55.844Z,10.64
2019-02-19T10:22:29.011Z,10.62
2019-02-19T10:25:03.860Z,10.66
2019-02-19T10:27:36.671Z,10.81
2019-02-19T10:30:16.029Z,11.17
2019-02-19T10:32:49.171Z,10.92
2019-02-19T10:35:22.571Z,10.60
2019-02-19T10:37:56.324Z,10.58
2019-02-19T10:40:30.225Z,10.54
2019-02-19T10:43:03.712Z,10.39
2019-02-19T10:45:39.233Z,10.13
2019-02-19T10:48:18.731Z,10.05
2019-02-19T10:50:57.033Z,10.12
2019-02-19T10:53:33.898Z,10.20
2019-02-19T10:56:08.499Z,10.20
2019-02-19T10:58:43.321Z,10.15
2019-02-19T11:01:17.583Z,10.31
2019-02-19T11:03:51.291Z,10.75
2019-02-19T11:06:27.194Z,10.82
2019-02-19T11:08:59.741Z,10.85
2019-02-19T11:11:32.407Z,11.04
2019-02-19T11:14:05.460Z,11.29
2019-02-19T11:16:38.840Z,11.64
2019-02-19T11:19:12.230Z,11.57
2019-02-19T11:21:46.097Z,11.26
2019-02-19T11:24:18.547Z,10.87
2019-02-19T11:26:51.130Z,10.55
2019-02-19T11:29:25.015Z,10.42
2019-02-19T11:32:00.042Z,10.72
2019-02-19T11:34:36.086Z,10.83
2019-02-19T11:37:13.855Z,10.75
2019-02-19T11:39:49.146Z,10.80
2019-02-19T11:42:22.556Z,10.81
2019-02-19T11:44:56.868Z,11.37
2019-02-19T11:47:31.027Z,11.99
2019-02-19T11:50:05.467Z,12.36
2019-02-19T11:52:40.587Z,12.40
2019-02-19T11:55:16.274Z,12.29
2019-02-19T11:57:49.162Z,11.58
2019-02-19T12:00:31.469Z,11.16
2019-02-19T12:03:05.404Z,11.07
2019-02-19T12:05:38.449Z,11.08
2019-02-19T12:08:11.134Z,11.03
2019-02-19T12:10:49.036Z,11.03
2019-02-19T12:13:25.602Z,11.26
2019-02-19T12:16:00.899Z,11.09
2019-02-19T12:18:45.682Z,11.13
2019-02-19T12:21:21.514Z,11.04
2019-02-19T12:23:55.899Z,10.92
2019-02-19T12:26:30.792Z,10.83
2019-02-19T12:29:04.884Z,10.75
2019-02-19T12:31:37.637Z,10.79
2019-02-19T12:34:10.160Z,10.74
2019-02-19T12:36:43.675Z,10.60
2019-02-19T12:39:18.227Z,10.70
2019-02-19T12:41:52.368Z,10.77
2019-02-19T12:44:25.226Z,10.80
2019-02-19T12:46:59.450Z,10.74
2019-02-19T12:49:33.313Z,10.61
2019-02-19T12:52:08.367Z,10.63
2019-02-19T12:54:41.791Z,10.68
2019-02-19T12:57:16.253Z,10.72
2019-02-19T12:59:56.409Z,10.77
2019-02-19T13:02:29.731Z,10.81
2019-02-19T13:05:05.911Z,10.79
2019-02-19T13:07:43.732Z,10.79
2019-02-19T13:10:17.000Z,10.79
2019-02-19T13:12:53.847Z,10.86
2019-02-19T13:15:30.617Z,10.91
2019-02-19T13:18:04.536Z,11.04
2019-02-19T13:20:44.780Z,11.30
2019-02-19T13:23:23.013Z,11.52
2019-02-19T13:25:58.915Z,11.45
2019-02-19T13:28:32.766Z,11.22
2019-02-19T13:31:07.361Z,11.13
2019-02-19T13:33:41.861Z,11.16
2019-02-19T13:36:16.207Z,11.19
2019-02-19T13:38:52.996Z,11.12
2019-02-19T13:41:26.457Z,11.11
2019-02-19T13:44:00.520Z,11.06
2019-02-19T13:46:33.625Z,10.95
2019-02-19T13:49:12.273Z,10.90
2019-02-19T13:51:48.501Z,10.94
2019-02-19T13:54:28.704Z,11.08
2019-02-19T13:57:09.120Z,11.23
2019-02-19T13:59:44.101Z,11.31
2019-02-19T14:02:21.790Z,11.67
2019-02-19T14:05:01.193Z,12.17
2019-02-19T14:07:38.426Z,12.49
2019-02-19T14:10:16.925Z,12.53
2019-02-19T14:12:50.320Z,12.19
2019-02-19T14:15:36.477Z,11.86
2019-02-19T14:18:11.431Z,11.65
2019-02-19T14:20:51.496Z,11.50
2019-02-19T14:23:48.755Z,11.39
2019-02-19T14:26:36.492Z,11.44
2019-02-19T14:29:16.164Z,11.63
2019-02-19T14:32:00.208Z,11.75
2019-02-19T14:34:55.984Z,11.54
2019-02-19T14:37:37.165Z,11.22
2019-02-19T14:40:20.256Z,11.00
2019-02-19T14:43:27.936Z,10.94
2019-02-19T14:46:36.496Z,10.86
2019-02-19T14:49:31.262Z,10.91
2019-02-19T14:52:21.382Z,11.26
2019-02-19T14:55:13.349Z,11.44
2019-02-19T14:58:14.502Z,11.51
2019-02-19T15:01:07.930Z,11.56
2019-02-19T15:03:58.945Z,11.76
2019-02-19T15:06:47.018Z,12.18
2019-02-19T15:09:43.827Z,12.48
2019-02-19T15:12:28.111Z,12.64
2019-02-19T15:15:10.067Z,12.41
2019-02-19T15:18:02.346Z,12.09
2019-02-19T15:20:49.132Z,12.06
2019-02-19T15:23:45.643Z,12.02
2019-02-19T15:26:30.062Z,12.28
2019-02-19T15:29:22.895Z,12.47
2019-02-19T15:32:30.922Z,12.29
2019-02-19T15:35:29.206Z,11.98
2019-02-19T15:38:24.279Z,11.76
2019-02-19T15:41:33.611Z,11.62
2019-02-19T15:44:14.216Z,11.61
2019-02-19T15:47:06.212Z,11.57
2019-02-19T15:50:03.807Z,11.50
2019-02-19T15:52:44.324Z,11.33
2019-02-19T15:55:42.874Z,11.30
2019-02-19T15:58:42.819Z,11.35
2019-02-19T16:01:36.290Z,11.38
2019-02-19T16:04:36.485Z,11.47
2019-02-19T16:07:32.989Z,11.34
2019-02-19T16:10:24.120Z,11.18
2019-02-19T16:13:04.962Z,11.11
2019-02-19T16:15:46.085Z,11.05
2019-02-19T16:18:28.139Z,10.87
2019-02-19T16:21:21.615Z,10.72
2019-02-19T16:24:12.955Z,10.59
2019-02-19T16:27:09.174Z,10.55
2019-02-19T16:29:53.629Z,10.49
2019-02-19T16:32:37.502Z,10.43
2019-02-19T16:35:30.727Z,10.38
2019-02-19T16:38:27.319Z,10.32
2019-02-19T16:41:12.712Z,10.28
2019-02-19T16:44:03.829Z,10.20
2019-02-19T16:46:43.718Z,10.15
2019-02-19T16:49:31.845Z,10.12
2019-02-19T16:52:15.591Z,10.08
2019-02-19T16:54:55.204Z,10.04
2019-02-19T16:57:40.352Z,10.00
2019-02-19T17:00:23.164Z,9.96
2019-02-19T17:03:19.259Z,9.89
2019-02-19T17:05:58.307Z,9.81
2019-02-19T17:08:51.638Z,9.73
2019-02-19T17:11:31.593Z,9.63
2019-02-19T17:14:33.248Z,9.54
2019-02-19T17:17:45.354Z,9.46
2019-02-19T17:20:35.652Z,9.40
2019-02-19T17:23:26.076Z,9.30
2019-02-19T17:26:23.045Z,9.18
2019-02-19T17:29:15.456Z,9.14
2019-02-19T17:32:02.610Z,9.11
2019-02-19T17:34:46.066Z,9.07
2019-02-19T17:37:37.967Z,8.98
2019-02-19T17:40:20.311Z,8.85
2019-02-19T17:43:15.433Z,8.73
2019-02-19T17:46:18.315Z,8.68
2019-02-19T17:49:00.173Z,8.60
2019-02-19T17:51:40.369Z,8.61
2019-02-19T17:54:19.947Z,8.58
2019-02-19T17:57:08.763Z,8.49
2019-02-19T18:00:04.075Z,8.50
2019-02-19T18:02:47.530Z,8.47
2019-02-19T18:05:44.897Z,8.45
2019-02-19T18:08:33.365Z,8.43
2019-02-19T18:11:23.916Z,8.38
2019-02-19T18:14:21.168Z,8.23
2019-02-19T18:17:03.739Z,8.14
2019-02-19T18:19:37.261Z,8.04
2019-02-19T18:22:11.507Z,7.93
2019-02-19T18:24:44.834Z,7.83
2019-02-19T18:27:19.219Z,7.76
2019-02-19T18:29:54.353Z,7.68
2019-02-19T18:32:27.575Z,7.57
2019-02-19T18:35:03.926Z,7.58
2019-02-19T18:37:45.125Z,7.65
2019-02-19T18:40:20.203Z,8.05
2019-02-19T18:42:54.804Z,7.97
2019-02-19T18:45:29.233Z,7.79
2019-02-19T18:48:02.692Z,7.67
2019-02-19T18:50:40.488Z,7.53
2019-02-19T18:53:21.939Z,7.44
2019-02-19T18:55:58.357Z,7.40
2019-02-19T18:58:31.530Z,7.40
2019-02-19T19:01:09.030Z,7.46
2019-02-19T19:03:47.147Z,7.53
2019-02-19T19:06:22.577Z,7.57
2019-02-19T19:09:06.885Z,7.49
2019-02-19T19:11:43.774Z,7.43
2019-02-19T19:14:17.603Z,7.42
2019-02-19T19:16:54.308Z,7.50
2019-02-19T19:19:31.573Z,7.60
2019-02-19T19:22:08.779Z,7.69
2019-02-19T19:24:41.853Z,7.72
2019-02-19T19:27:18.845Z,7.73
2019-02-19T19:29:55.031Z,7.73
2019-02-19T19:32:29.952Z,7.73
2019-02-19T19:35:10.831Z,7.72
2019-02-19T19:37:56.295Z,7.69
2019-02-19T19:40:37.742Z,7.64
2019-02-19T19:43:22.819Z,7.54
2019-02-19T19:45:57.323Z,7.48
2019-02-19T19:48:31.289Z,7.40
2019-02-19T19:51:17.284Z,7.36
2019-02-19T19:53:52.716Z,7.38
2019-02-19T19:56:30.732Z,7.44
2019-02-19T19:59:11.049Z,7.47
2019-02-19T20:01:47.058Z,7.50
2019-02-19T20:04:22.790Z,7.46
2019-02-19T20:06:57.194Z,7.41
2019-02-19T20:09:31.314Z,7.36
2019-02-19T20:12:06.036Z,7.28
2019-02-19T20:14:42.346Z,7.28
2019-02-19T20:17:15.856Z,7.31
2019-02-19T20:19:51.652Z,7.31
2019-02-19T20:22:26.663Z,7.27
2019-02-19T20:25:03.933Z,7.24
2019-02-19T20:27:38.525Z,7.23
2019-02-19T20:30:16.420Z,7.22
2019-02-19T20:32:50.823Z,7.17
2019-02-19T20:35:24.722Z,7.13
2019-02-19T20:37:59.221Z,7.10
2019-02-19T20:40:33.263Z,7.09
2019-02-19T20:43:07.680Z,7.10
2019-02-19T20:45:43.319Z,7.02
2019-02-19T20:48:16.878Z,6.90
2019-02-19T20:50:54.963Z,6.78
2019-02-19T20:53:29.993Z,6.68
2019-02-19T20:56:13.501Z,6.65
2019-02-19T20:58:47.780Z,6.53
2019-02-19T21:01:36.147Z,6.43
2019-02-19T21:04:13.158Z,6.36
2019-02-19T21:06:46.611Z,6.36
2019-02-19T21:09:21.520Z,6.39
2019-02-19T21:11:56.793Z,6.39
2019-02-19T21:14:30.190Z,6.42
2019-02-19T21:17:04.218Z,6.39
2019-02-19T21:19:37.013Z,6.31
2019-02-19T21:22:11.953Z,6.26
2019-02-19T21:24:46.555Z,6.25
2019-02-19T21:27:20.001Z,6.23
2019-02-19T21:29:54.028Z,6.28
2019-02-19T21:32:27.603Z,6.38
2019-02-19T21:35:00.154Z,6.50
2019-02-19T21:37:32.951Z,6.58
2019-02-19T21:40:08.897Z,6.65
2019-02-19T21:42:42.382Z,6.68
2019-02-19T21:45:17.670Z,6.68
2019-02-19T21:47:51.248Z,6.71
2019-02-19T21:50:37.015Z,6.71
2019-02-19T21:53:10.912Z,6.71
2019-02-19T21:55:45.131Z,6.76
2019-02-19T21:58:18.747Z,6.76
2019-02-19T22:00:51.949Z,6.74
2019-02-19T22:03:25.824Z,6.68
2019-02-19T22:05:58.310Z,6.60
2019-02-19T22:08:31.946Z,6.47
2019-02-19T22:11:05.146Z,6.30
2019-02-19T22:13:38.221Z,6.14
2019-02-19T22:16:11.945Z,6.04
2019-02-19T22:18:47.660Z,5.86
2019-02-19T22:21:33.325Z,5.71
2019-02-19T22:24:06.735Z,5.54
2019-02-19T22:26:39.297Z,5.31
2019-02-19T22:29:12.780Z,5.11
2019-02-19T22:31:45.472Z,5.00
2019-02-19T22:34:18.515Z,4.87
2019-02-19T22:36:51.848Z,4.71
2019-02-19T22:39:24.576Z,4.59
2019-02-19T22:41:59.649Z,4.59
2019-02-19T22:44:33.137Z,4.73
2019-02-19T22:47:09.042Z,4.81
2019-02-19T22:49:42.245Z,4.80
2019-02-19T22:52:14.744Z,4.87
2019-02-19T22:54:52.908Z,4.87
2019-02-19T22:57:28.859Z,4.87
2019-02-19T23:00:04.235Z,4.80
2019-02-19T23:02:37.774Z,4.84
2019-02-19T23:05:11.597Z,4.80
2019-02-19T23:07:44.945Z,4.90
2019-02-19T23:10:23.686Z,4.96
2019-02-19T23:12:56.407Z,4.97
2019-02-19T23:15:30.914Z,4.95
2019-02-19T23:18:04.662Z,5.02
2019-02-19T23:20:39.447Z,5.20
2019-02-19T23:23:14.263Z,5.31
2019-02-19T23:25:47.200Z,5.40
2019-02-19T23:28:20.548Z,5.50
2019-02-19T23:30:57.890Z,5.58
2019-02-19T23:33:30.951Z,5.61
2019-02-19T23:36:12.166Z,5.58
2019-02-19T23:38:44.578Z,5.55
2019-02-19T23:41:17.914Z,5.56
2019-02-19T23:43:53.675Z,5.56
2019-02-19T23:46:27.317Z,5.53
2019-02-19T23:49:02.256Z,5.60
2019-02-19T23:51:36.318Z,5.63
2019-02-19T23:54:11.502Z,5.72
2019-02-19T23:56:48.044Z,5.76
2019-02-19T23:59:23.902Z,5.78
